createdAt,value
2022-08-04T00:00:24.251Z,22.50
2022-08-04T00:03:12.165Z,22.50
2022-08-04T00:06:05.006Z,22.70
2022-08-04T00:08:55.722Z,22.70
2022-08-04T00:11:26.510Z,22.80
2022-08-04T00:14:02.780Z,22.80
2022-08-04T00:16:34.882Z,22.70
2022-08-04T00:19:12.059Z,22.70
2022-08-04T00:21:47.566Z,22.60
2022-08-04T00:24:16.035Z,22.60
2022-08-04T00:26:43.726Z,22.60
2022-08-04T00:29:10.952Z,22.60
2022-08-04T00:31:56.794Z,22.60
2022-08-04T00:34:29.242Z,22.40
2022-08-04T00:36:57.769Z,22.40
2022-08-04T00:39:28.498Z,22.30
2022-08-04T00:42:25.916Z,22.30
2022-08-04T00:45:16.731Z,22.40
2022-08-04T00:48:10.472Z,22.40
2022-08-04T00:51:15.049Z,22.50
2022-08-04T00:54:04.464Z,22.60
2022-08-04T00:57:34.129Z,22.60
2022-08-04T01:00:14.573Z,22.60
2022-08-04T01:03:09.519Z,22.70
2022-08-04T01:05:52.916Z,22.70
2022-08-04T01:08:52.267Z,22.50
2022-08-04T01:11:57.698Z,22.50
2022-08-04T01:15:26.135Z,22.50
2022-08-04T01:18:13.374Z,22.50
2022-08-04T01:21:00.247Z,22.50
2022-08-04T01:24:08.712Z,22.30
2022-08-04T01:27:04.112Z,22.30
2022-08-04T01:29:47.296Z,22.30
2022-08-04T01:32:31.938Z,22.20
2022-08-04T01:35:07.634Z,22.10
2022-08-04T01:37:56.197Z,22.00
2022-08-04T01:40:23.579Z,22.00
2022-08-04T01:42:53.768Z,21.90
2022-08-04T01:45:23.653Z,21.80
2022-08-04T01:47:59.606Z,21.80
2022-08-04T01:50:28.922Z,21.60
2022-08-04T01:52:56.630Z,21.60
2022-08-04T01:55:24.627Z,21.50
2022-08-04T01:58:12.643Z,21.50
2022-08-04T02:00:44.417Z,21.40
2022-08-04T02:03:14.189Z,21.40
2022-08-04T02:06:03.011Z,21.30
2022-08-04T02:08:51.857Z,21.30
2022-08-04T02:11:22.521Z,21.30
2022-08-04T02:14:39.105Z,21.30
2022-08-04T02:17:14.272Z,21.30
2022-08-04T02:20:16.700Z,21.20
2022-08-04T02:23:24.108Z,21.20
2022-08-04T02:26:01.321Z,21.10
2022-08-04T02:28:35.964Z,21.10
2022-08-04T02:31:14.551Z,21.10
2022-08-04T02:33:46.673Z,21.10
2022-08-04T02:36:34.867Z,21.10
2022-08-04T02:39:04.252Z,21.10
2022-08-04T02:41:32.417Z,21.10
2022-08-04T02:44:05.336Z,21.00
2022-08-04T02:46:33.778Z,21.00
2022-08-04T02:49:04.420Z,21.00
2022-08-04T02:51:35.181Z,21.00
2022-08-04T02:54:04.876Z,21.00
2022-08-04T02:56:33.769Z,20.90
2022-08-04T02:59:03.581Z,20.90
2022-08-04T03:01:31.509Z,20.90
2022-08-04T03:04:37.672Z,21.00
2022-08-04T03:07:54.371Z,20.90
2022-08-04T03:11:05.260Z,20.90
2022-08-04T03:14:05.287Z,20.80
2022-08-04T03:17:27.793Z,20.70
2022-08-04T03:20:51.687Z,20.70
2022-08-04T03:23:57.668Z,20.70
2022-08-04T03:27:04.913Z,20.60
2022-08-04T03:30:16.214Z,20.60
2022-08-04T03:33:14.758Z,20.50
2022-08-04T03:36:28.592Z,20.40
2022-08-04T03:39:37.963Z,20.40
2022-08-04T03:46:50.334Z,20.30
2022-08-04T03:49:46.283Z,20.20
2022-08-04T03:53:11.826Z,20.20
2022-08-04T05:02:16.124Z,20.60
2022-08-04T05:05:27.582Z,20.60
2022-08-04T05:08:45.361Z,20.60
2022-08-04T05:11:45.442Z,20.50
2022-08-04T05:14:38.055Z,20.50
2022-08-04T05:17:27.181Z,20.60
2022-08-04T05:20:03.770Z,20.90
2022-08-04T05:22:52.792Z,21.00
2022-08-04T05:25:39.288Z,21.20
2022-08-04T05:28:18.444Z,21.80
2022-08-04T05:30:54.893Z,22.60
2022-08-04T05:33:29.235Z,23.40
2022-08-04T05:36:18.753Z,24.10
2022-08-04T05:38:51.099Z,24.50
2022-08-04T05:41:19.033Z,24.80
2022-08-04T05:43:48.171Z,25.10
2022-08-04T05:46:16.625Z,25.40
2022-08-04T05:48:45.901Z,26.10
2022-08-04T05:51:14.119Z,26.40
2022-08-04T05:53:44.359Z,26.80
2022-08-04T05:56:14.251Z,26.60
2022-08-04T05:58:42.493Z,25.90
2022-08-04T06:01:11.133Z,25.50
2022-08-04T06:03:39.598Z,25.50
2022-08-04T06:06:09.450Z,26.20
2022-08-04T06:08:36.408Z,26.30
2022-08-04T06:11:07.682Z,26.60
2022-08-04T06:13:50.793Z,26.90
2022-08-04T06:16:30.080Z,27.40
2022-08-04T06:20:03.401Z,28.10
2022-08-04T06:21:52.479Z,28.40
2022-08-04T06:24:22.392Z,28.60
2022-08-04T06:26:51.533Z,28.40
2022-08-04T06:29:27.024Z,28.50
2022-08-04T06:32:27.708Z,28.80
2022-08-04T06:34:46.789Z,28.80
2022-08-04T06:37:41.552Z,28.80
2022-08-04T06:40:04.214Z,28.70
2022-08-04T06:42:51.954Z,29.10
2022-08-04T06:45:20.343Z,29.40
2022-08-04T06:47:48.836Z,30.00
2022-08-04T06:51:25.590Z,30.60
2022-08-04T06:53:04.516Z,31.00
2022-08-04T06:55:33.384Z,31.50
2022-08-04T06:58:03.458Z,32.10
2022-08-04T07:00:32.058Z,32.80
2022-08-04T07:02:59.563Z,33.30
2022-08-04T07:05:26.906Z,32.80
2022-08-04T07:07:57.362Z,32.70
2022-08-04T07:10:30.111Z,33.20
2022-08-04T07:12:58.352Z,33.70
2022-08-04T07:15:26.819Z,34.10
2022-08-04T07:17:56.948Z,34.20
2022-08-04T07:20:34.633Z,34.50
2022-08-04T07:23:07.603Z,35.00
2022-08-04T07:26:00.239Z,35.30
2022-08-04T07:28:25.812Z,35.30
2022-08-04T07:30:54.434Z,35.40
2022-08-04T07:33:22.190Z,35.30
2022-08-04T07:36:05.150Z,35.80
2022-08-04T07:38:48.095Z,36.20
2022-08-04T07:41:40.700Z,36.30
2022-08-04T07:44:09.342Z,36.60
2022-08-04T07:46:36.945Z,36.50
2022-08-04T07:49:05.269Z,36.60
2022-08-04T07:51:32.773Z,36.90
2022-08-04T07:54:00.954Z,37.20
2022-08-04T07:56:28.710Z,37.70
2022-08-04T07:58:56.342Z,37.60
2022-08-04T08:01:24.929Z,37.40
2022-08-04T08:03:54.053Z,36.70
2022-08-04T08:06:32.295Z,36.40
2022-08-04T08:09:13.496Z,36.60
2022-08-04T08:12:38.440Z,36.50
2022-08-04T08:14:35.666Z,36.70
2022-08-04T08:17:03.676Z,36.80
2022-08-04T08:19:36.040Z,37.00
2022-08-04T08:22:04.892Z,36.90
2022-08-04T08:24:36.157Z,37.40
2022-08-04T08:27:04.770Z,37.20
2022-08-04T08:29:34.628Z,37.30
2022-08-04T08:32:08.268Z,37.00
2022-08-04T08:34:38.255Z,36.80
2022-08-04T08:37:28.200Z,37.20
2022-08-04T08:40:39.950Z,37.80
2022-08-04T08:44:04.862Z,38.30
2022-08-04T08:46:53.784Z,38.30
2022-08-04T08:50:04.827Z,38.90
2022-08-04T08:53:18.543Z,39.10
2022-08-04T08:56:34.691Z,39.00
2022-08-04T08:59:39.434Z,39.40
2022-08-04T09:02:35.632Z,39.60
2022-08-04T09:05:22.786Z,39.30
2022-08-04T09:08:29.705Z,39.10
2022-08-04T09:11:14.942Z,38.70
2022-08-04T09:13:56.958Z,38.90
2022-08-04T09:16:49.484Z,39.20
2022-08-04T09:19:38.623Z,39.30
2022-08-04T09:22:16.354Z,39.20
2022-08-04T09:25:22.102Z,39.60
2022-08-04T09:28:01.750Z,39.30
2022-08-04T09:30:49.192Z,39.40
2022-08-04T09:33:53.836Z,39.70
2022-08-04T09:36:51.875Z,39.90
2022-08-04T09:39:37.447Z,39.70
2022-08-04T09:42:45.116Z,39.50
2022-08-04T09:45:26.552Z,39.10
2022-08-04T09:48:06.086Z,39.50
2022-08-04T09:50:41.480Z,40.00
2022-08-04T09:53:51.382Z,40.30
2022-08-04T09:56:41.689Z,40.40
2022-08-04T09:59:36.287Z,40.90
2022-08-04T10:02:09.520Z,40.80
2022-08-04T10:04:39.681Z,40.90
2022-08-04T10:08:13.634Z,40.80
2022-08-04T10:11:07.065Z,40.60
2022-08-04T10:14:00.545Z,41.00
2022-08-04T10:17:02.210Z,41.30
2022-08-04T10:19:35.088Z,41.00
2022-08-04T10:22:30.642Z,40.70
2022-08-04T10:26:05.103Z,40.50
2022-08-04T10:28:31.490Z,40.30
2022-08-04T10:31:03.344Z,40.30
2022-08-04T10:33:50.532Z,40.40
2022-08-04T10:36:23.976Z,40.70
2022-08-04T10:39:08.291Z,41.20
2022-08-04T10:42:23.128Z,41.10
2022-08-04T10:45:19.654Z,40.90
2022-08-04T10:47:58.884Z,40.70
2022-08-04T10:50:29.387Z,40.10
2022-08-04T10:53:04.945Z,40.40
2022-08-04T10:56:06.322Z,40.30
2022-08-04T10:58:48.597Z,40.90
2022-08-04T11:02:01.283Z,41.30
2022-08-04T11:05:04.768Z,40.60
2022-08-04T11:07:34.074Z,40.10
2022-08-04T11:10:01.912Z,40.30
2022-08-04T11:12:29.701Z,40.20
2022-08-04T11:15:04.800Z,40.50
2022-08-04T11:17:56.927Z,40.00
2022-08-04T11:20:34.965Z,39.30
2022-08-04T11:23:16.246Z,38.70
2022-08-04T11:26:02.925Z,38.60
2022-08-04T11:29:03.458Z,39.20
2022-08-04T11:31:40.512Z,40.10
2022-08-04T11:34:27.864Z,40.60
2022-08-04T11:37:19.135Z,40.90
2022-08-04T11:40:04.209Z,41.00
2022-08-04T11:42:41.911Z,40.50
2022-08-04T11:45:17.001Z,39.50
2022-08-04T11:48:09.550Z,39.20
2022-08-04T11:50:53.940Z,39.40
2022-08-04T11:53:24.690Z,39.80
2022-08-04T11:56:08.363Z,40.20
2022-08-04T11:58:37.927Z,40.10
2022-08-04T12:01:48.870Z,40.40
2022-08-04T12:04:47.536Z,40.20
2022-08-04T12:07:30.579Z,39.60
2022-08-04T12:10:40.881Z,38.80
2022-08-04T12:13:18.613Z,38.50
2022-08-04T12:16:17.043Z,38.30
2022-08-04T12:18:57.652Z,38.10
2022-08-04T12:21:50.238Z,37.90
2022-08-04T12:24:43.125Z,37.50
2022-08-04T12:27:33.613Z,37.30
2022-08-04T12:31:00.190Z,37.30
2022-08-04T12:33:05.682Z,37.60
2022-08-04T12:36:05.181Z,37.50
2022-08-04T12:38:47.407Z,37.70
2022-08-04T12:41:21.818Z,38.00
2022-08-04T12:43:50.821Z,38.10
2022-08-04T12:46:24.412Z,38.50
2022-08-04T12:48:53.111Z,38.70
2022-08-04T12:52:06.138Z,38.20
2022-08-04T12:54:10.606Z,38.00
2022-08-04T12:56:39.074Z,37.30
2022-08-04T12:59:12.584Z,36.70
2022-08-04T13:02:07.884Z,36.20
2022-08-04T13:04:39.772Z,35.70
2022-08-04T13:07:21.159Z,35.40
2022-08-04T13:09:49.026Z,35.10
2022-08-04T13:12:19.477Z,34.90
2022-08-04T13:14:51.558Z,34.80
2022-08-04T13:17:19.946Z,34.90
2022-08-04T13:19:56.701Z,34.70
2022-08-04T13:22:28.784Z,34.60
2022-08-04T13:27:48.799Z,34.50
2022-08-04T13:30:23.617Z,34.30
2022-08-04T13:30:24.311Z,34.60
2022-08-04T13:33:03.035Z,34.20
2022-08-04T13:35:55.749Z,34.10
2022-08-04T13:38:21.226Z,33.90
2022-08-04T13:40:49.843Z,33.50
2022-08-04T13:44:15.399Z,33.30
2022-08-04T13:46:27.803Z,32.80
2022-08-04T13:49:26.082Z,32.50
2022-08-04T13:51:57.711Z,32.10
2022-08-04T13:54:46.765Z,31.90
2022-08-04T13:57:19.630Z,32.00
2022-08-04T13:59:52.068Z,32.20
2022-08-04T14:02:59.696Z,32.20
2022-08-04T14:05:35.301Z,32.10
2022-08-04T14:08:29.123Z,32.30
2022-08-04T14:11:01.772Z,32.00
2022-08-04T14:13:41.378Z,31.70
2022-08-04T14:16:24.649Z,31.40
2022-08-04T14:19:02.450Z,31.40
2022-08-04T14:21:36.321Z,31.50
2022-08-04T14:24:03.324Z,31.20
2022-08-04T14:26:34.467Z,31.10
2022-08-04T14:29:27.629Z,30.80
2022-08-04T14:32:03.192Z,30.70
2022-08-04T14:34:33.456Z,30.80
2022-08-04T14:37:16.405Z,30.90
2022-08-04T14:40:07.856Z,31.00
2022-08-04T14:42:54.552Z,31.00
2022-08-04T14:45:53.991Z,31.10
2022-08-04T14:48:22.538Z,31.20
2022-08-04T14:50:51.202Z,31.20
2022-08-04T14:53:23.511Z,31.30
2022-08-04T14:55:53.113Z,31.40
2022-08-04T14:58:34.687Z,31.50
2022-08-04T15:01:10.080Z,31.50
2022-08-04T15:03:50.596Z,31.60
2022-08-04T15:06:26.303Z,31.70
2022-08-04T15:08:56.190Z,31.70
2022-08-04T15:11:24.573Z,31.80
2022-08-04T15:13:56.626Z,31.90
2022-08-04T15:16:26.099Z,31.90
2022-08-04T15:18:54.872Z,31.80
2022-08-04T15:21:28.219Z,31.70
2022-08-04T15:23:57.038Z,31.60
2022-08-04T15:26:51.968Z,31.60
2022-08-04T15:30:00.199Z,31.60
2022-08-04T15:32:24.184Z,31.60
2022-08-04T15:34:52.973Z,31.60
2022-08-04T15:37:31.339Z,31.50
2022-08-04T15:40:26.912Z,31.40
2022-08-04T15:43:21.938Z,31.40
2022-08-04T15:46:41.364Z,31.20
2022-08-04T15:48:52.429Z,31.00
2022-08-04T15:51:32.812Z,30.90
2022-08-04T15:54:28.135Z,30.70
2022-08-04T15:57:02.138Z,30.60
2022-08-04T15:59:58.501Z,30.50
2022-08-04T16:02:39.887Z,30.40
2022-08-04T16:05:37.165Z,30.30
2022-08-04T16:08:12.418Z,30.20
2022-08-04T16:10:44.712Z,30.10
2022-08-04T16:13:14.644Z,30.10
2022-08-04T16:15:47.774Z,30.00
2022-08-04T16:18:43.670Z,29.90
2022-08-04T16:21:23.700Z,29.90
2022-08-04T16:24:16.858Z,29.80
2022-08-04T16:26:55.122Z,29.70
2022-08-04T16:29:45.481Z,29.60
2022-08-04T16:32:21.538Z,29.60
2022-08-04T16:35:17.773Z,29.60
2022-08-04T16:37:44.736Z,29.60
2022-08-04T16:40:34.585Z,29.50
2022-08-04T16:43:13.259Z,29.60
2022-08-04T16:46:04.375Z,29.60
2022-08-04T16:48:34.597Z,29.50
2022-08-04T16:51:05.131Z,29.40
2022-08-04T16:53:52.460Z,29.40
2022-08-04T16:56:33.033Z,29.30
2022-08-04T16:59:11.409Z,29.30
2022-08-04T17:01:46.766Z,29.30
2022-08-04T17:04:14.076Z,29.30
2022-08-04T17:06:42.703Z,29.30
2022-08-04T17:09:19.565Z,29.20
2022-08-04T17:11:48.301Z,29.10
2022-08-04T17:14:25.486Z,28.90
2022-08-04T17:16:54.795Z,28.60
2022-08-04T17:19:26.389Z,28.20
2022-08-04T17:22:06.024Z,27.90
2022-08-04T17:24:38.864Z,27.70
2022-08-04T17:28:20.071Z,27.50
2022-08-04T17:29:54.005Z,27.40
2022-08-04T17:32:22.546Z,27.30
2022-08-04T17:34:59.107Z,27.30
2022-08-04T17:37:38.445Z,27.40
2022-08-04T17:40:18.502Z,27.40
2022-08-04T17:42:50.868Z,27.40
2022-08-04T17:45:53.734Z,27.40
2022-08-04T17:48:09.272Z,27.60
2022-08-04T17:50:36.743Z,27.70
2022-08-04T17:53:11.746Z,27.70
2022-08-04T17:55:49.487Z,27.80
2022-08-04T17:58:23.224Z,27.80
2022-08-04T18:03:51.547Z,27.70
2022-08-04T18:06:20.377Z,27.70
2022-08-04T18:08:57.717Z,27.60
2022-08-04T18:14:13.072Z,27.50
2022-08-04T18:16:46.555Z,27.30
2022-08-04T18:19:19.143Z,27.30
2022-08-04T18:21:59.264Z,27.20
2022-08-04T18:24:35.607Z,27.10
2022-08-04T18:27:18.499Z,27.00
2022-08-04T18:30:14.911Z,26.80
2022-08-04T18:32:34.759Z,26.70
2022-08-04T18:35:05.423Z,26.60
2022-08-04T18:38:03.127Z,26.50
2022-08-04T18:40:33.259Z,26.50
2022-08-04T18:43:06.063Z,26.30
2022-08-04T18:45:34.577Z,26.20
2022-08-04T18:48:14.668Z,26.20
2022-08-04T18:51:11.063Z,26.10
2022-08-04T18:53:35.790Z,26.10
2022-08-04T18:56:06.050Z,26.00
2022-08-04T18:58:42.677Z,25.90
2022-08-04T19:01:14.183Z,25.80
2022-08-04T19:03:44.276Z,25.80
2022-08-04T19:06:11.978Z,25.70
2022-08-04T19:08:42.202Z,25.60
2022-08-04T19:14:14.127Z,25.40
2022-08-04T19:16:45.888Z,25.30
2022-08-04T19:19:13.965Z,25.30
2022-08-04T19:22:00.148Z,25.20
2022-08-04T19:24:33.895Z,25.10
2022-08-04T19:27:08.334Z,25.00
2022-08-04T19:29:41.425Z,24.90
2022-08-04T19:32:13.853Z,24.80
2022-08-04T19:35:00.460Z,24.70
2022-08-04T19:37:58.478Z,24.60
2022-08-04T19:40:15.128Z,24.50
2022-08-04T19:42:42.650Z,24.40
2022-08-04T19:45:15.240Z,24.40
2022-08-04T19:48:16.630Z,24.30
2022-08-04T19:50:29.997Z,24.20
2022-08-04T19:52:56.941Z,24.10
2022-08-04T19:55:36.663Z,24.00
2022-08-04T19:58:07.316Z,24.00
2022-08-04T20:00:37.306Z,23.90
2022-08-04T20:03:11.634Z,23.90
2022-08-04T20:05:55.217Z,23.80
2022-08-04T20:08:28.774Z,23.70
2022-08-04T20:10:57.841Z,23.70
2022-08-04T20:13:30.931Z,23.60
2022-08-04T20:16:28.969Z,23.50
2022-08-04T20:18:56.654Z,23.50
2022-08-04T20:21:53.936Z,23.40
2022-08-04T20:24:38.167Z,23.30
2022-08-04T20:27:00.416Z,23.20
2022-08-04T20:29:40.134Z,23.20
2022-08-04T20:32:09.816Z,23.20
2022-08-04T20:34:37.675Z,23.20
2022-08-04T20:37:07.321Z,23.10
2022-08-04T20:39:37.692Z,23.10
2022-08-04T20:42:05.026Z,23.10
2022-08-04T20:44:33.629Z,23.10
2022-08-04T20:47:00.914Z,23.10
2022-08-04T20:49:35.020Z,23.10
2022-08-04T20:52:13.382Z,23.10
2022-08-04T20:54:48.091Z,23.10
2022-08-04T21:00:05.874Z,23.00
2022-08-04T21:02:32.827Z,23.00
2022-08-04T21:05:05.993Z,23.00
2022-08-04T21:07:43.770Z,22.90
2022-08-04T21:10:15.673Z,22.90
2022-08-04T21:12:49.700Z,22.80
2022-08-04T21:15:25.016Z,22.80
2022-08-04T21:17:58.713Z,22.90
2022-08-04T21:20:32.293Z,22.80
2022-08-04T21:23:02.353Z,22.70
2022-08-04T21:25:30.845Z,22.70
2022-08-04T21:27:58.936Z,22.60
2022-08-04T21:30:52.870Z,22.60
2022-08-04T21:33:22.758Z,22.50
2022-08-04T21:35:53.946Z,22.50
2022-08-04T21:38:28.017Z,22.50
2022-08-04T21:41:01.874Z,22.40
2022-08-04T21:43:42.531Z,22.40
2022-08-04T21:46:11.399Z,22.40
2022-08-04T21:48:38.721Z,22.40
2022-08-04T21:51:58.094Z,22.30
2022-08-04T21:54:14.930Z,22.30
2022-08-04T21:59:31.856Z,22.30
2022-08-04T22:02:00.793Z,22.40
2022-08-04T22:04:29.291Z,22.50
2022-08-04T22:06:56.260Z,22.50
2022-08-04T22:09:23.182Z,22.50
2022-08-04T22:11:51.969Z,22.50
2022-08-04T22:14:29.081Z,22.40
2022-08-04T22:17:01.460Z,22.30
2022-08-04T22:19:40.314Z,22.20
2022-08-04T22:22:26.255Z,22.20
2022-08-04T22:25:00.561Z,22.20
2022-08-04T22:27:47.277Z,22.20
2022-08-04T22:30:17.765Z,22.20
2022-08-04T22:32:50.464Z,22.20
2022-08-04T22:35:36.501Z,22.20
2022-08-04T22:38:26.200Z,22.10
2022-08-04T22:41:04.247Z,22.10
2022-08-04T22:43:34.552Z,22.10
2022-08-04T22:46:26.320Z,22.10
2022-08-04T22:48:54.601Z,22.00
2022-08-04T22:51:22.565Z,22.00
2022-08-04T22:53:51.512Z,22.00
2022-08-04T22:56:37.298Z,21.90
2022-08-04T22:59:06.427Z,21.90
2022-08-04T23:01:59.710Z,21.80
2022-08-04T23:04:24.039Z,21.80
2022-08-04T23:06:54.325Z,21.80
2022-08-04T23:09:26.833Z,21.80
2022-08-04T23:12:24.425Z,21.70
2022-08-04T23:14:54.822Z,21.70
2022-08-04T23:17:22.273Z,21.70
2022-08-04T23:19:58.177Z,21.70
2022-08-04T23:22:41.857Z,21.70
2022-08-04T23:25:16.490Z,21.70
2022-08-04T23:27:51.634Z,21.70
2022-08-04T23:30:29.469Z,21.70
2022-08-04T23:32:57.751Z,21.70
2022-08-04T23:35:24.739Z,21.70
2022-08-04T23:37:57.898Z,21.70
2022-08-04T23:40:32.662Z,21.80
2022-08-04T23:43:00.925Z,21.80
2022-08-04T23:46:07.628Z,21.80
2022-08-04T23:48:20.817Z,21.80
2022-08-04T23:50:48.153Z,21.80
2022-08-04T23:53:18.742Z,21.80
2022-08-04T23:55:49.569Z,21.80
2022-08-04T23:58:26.732Z,21.70
